ADDS METAR Data INFO
IDs: Format: Raw Decoded Include TAF

Data at: 1837 UTC 16 Dec 2017

KY63 161835Z AUTO 00000KT 3SM BR BKN011 OVC028 M03/M05 A2990 RMK AO2 T10271046
KY63 161815Z AUTO 00000KT 3SM BR SCT011 OVC028 M03/M04 A2989 RMK AO2 T10281045
KY63 161755Z AUTO 14003KT 3SM BR OVC011 M03/M04 A2989 RMK AO2 T10301045 11030 21046
KY63 161735Z AUTO 00000KT 4SM BR OVC011 M03/M05 A2989 RMK AO2 T10311047
KY63 161715Z AUTO 09003KT 3SM BR OVC011 M03/M05 A2989 RMK AO2 T10311048
KY63 161655Z AUTO 13004KT 3SM BR OVC011 M03/M05 A2988 RMK AO2 T10351051
KY63 161635Z AUTO 13003KT 3SM BR OVC011 M03/M05 A2987 RMK AO2 T10351052
KY63 161615Z AUTO 14004KT 4SM BR OVC011 M04/M05 A2986 RMK AO2 T10381052
KY63 161555Z AUTO 13004KT 5SM BR BKN013 M04/M05 A2986 RMK AO2 T10421052
KY63 161535Z AUTO 14006KT 3SM BR SCT013 M04/M05 A2984 RMK AO2 T10441055
KY63 161515Z AUTO 05004KT 4SM BR BKN070 M05/M05 A2982 RMK AO2 T10461055
KY63 161455Z AUTO 09005KT 3SM BR OVC060 M04/M05 A2980 RMK AO2 T10421051
KY63 161435Z AUTO 15009KT 2 1/2SM BR OVC060 M04/M05 A2979 RMK AO2 VIS 1 1/2V4 T10431051
KY63 161415Z AUTO 11006KT 2SM BR OVC060 M04/M05 A2978 RMK AO2 VIS 1V3 T10421050
KY63 161355Z AUTO 14006KT 4SM BR OVC060 M04/M05 A2977 RMK AO2 T10421050
KY63 161335Z AUTO 15006KT 5SM BR OVC060 M04/M05 A2976 RMK AO2 T10411050
KY63 161315Z AUTO 14008KT 4SM BR OVC060 M04/M05 A2975 RMK AO2 T10411048
KY63 161255Z AUTO 15008KT 5SM BR OVC060 M04/M05 A2973 RMK AO2 T10401046
KY63 161235Z AUTO 11007KT 040V150 5SM BR BKN060 OVC090 M04/M04 A2971 RMK AO2 T10401045
KY63 161215Z AUTO 11009KT 050V150 4SM BR BKN060 OVC080 M04/M04 A2970 RMK AO2 T10381045
KY63 161155Z AUTO 11007KT 040V150 5SM BR SCT060 BKN070 BKN110 M04/M04 A2971 RMK AO2 T10361042 11016 21040
KY63 161135Z AUTO 10007KT 040V150 4SM BR SCT060 BKN070 OVC110 M03/M04 A2969 RMK AO2 T10351040
KY63 161115Z AUTO 15008KT 5SM BR SCT060 OVC090 M03/M04 A2968 RMK AO2 T10351040
KY63 161055Z AUTO 14007KT 5SM BR OVC100 M03/M04 A2967 RMK AO2 T10351040
KY63 161035Z AUTO 11007KT 040V150 5SM BR OVC100 M03/M04 A2967 RMK AO2 T10331040
KY63 161015Z AUTO 14008KT 080V150 5SM BR OVC100 M03/M04 A2966 RMK AO2 T10351040
KY63 160955Z AUTO 14007KT 5SM BR OVC100 M03/M04 A2965 RMK AO2 T10331040
KY63 160935Z AUTO 15009KT 5SM BR OVC110 M03/M04 A2965 RMK AO2 T10331040
KY63 160915Z AUTO 15007KT 5SM BR BKN110 M03/M04 A2965 RMK AO2 T10351040
KY63 160855Z AUTO 14008KT 7SM SCT039 M04/M04 A2963 RMK AO2 T10391044
KY63 160835Z AUTO 15008KT 5SM BR SCT039 M03/M04 A2962 RMK AO2 T10331037
KY63 160815Z AUTO 15008KT 7SM BKN041 M03/M04 A2960 RMK AO2 T10301036
KY63 160755Z AUTO 14006KT 5SM BR SCT041 SCT110 M03/M04 A2961 RMK AO2 T10281036
KY63 160735Z AUTO 13008KT 5SM BR SCT046 BKN110 M02/M03 A2960 RMK AO2 T10241031
KY63 160715Z AUTO 13008KT 7SM SCT046 OVC110 M02/M03 A2960 RMK AO2 T10201028
KY63 160655Z AUTO 13007KT 7SM OVC110 M02/M03 A2960 RMK AO2 T10201028
KY63 160635Z AUTO 14010KT 7SM SCT060 OVC110 M02/M03 A2959 RMK AO2 T10201027
KY63 160615Z AUTO 14007KT 7SM OVC060 M02/M03 A2960 RMK AO2 T10171026
KY63 160555Z AUTO 13008KT 7SM BKN060 BKN110 M02/M03 A2960 RMK AO2 T10171026 11012 21025 410121065
KY63 160535Z AUTO 12007KT 5SM BR BKN060 BKN110 M02/M02 A2959 RMK AO2 T10161025
KY63 160515Z AUTO 13007KT 5SM BR OVC060 M01/M02 A2959 RMK AO2 T10141023
KY63 160455Z AUTO 13007KT 5SM BR OVC060 M01/M02 A2959 RMK AO2 T10151023
KY63 160435Z AUTO 13007KT 7SM SCT048 OVC060 M01/M02 A2959 RMK AO2 T10131022
KY63 160415Z AUTO 12008KT 5SM BR BKN048 BKN060 M01/M02 A2958 RMK AO2 T10131022
KY63 160355Z AUTO 14008KT 7SM SCT060 BKN070 M01/M02 A2959 RMK AO2 T10151022
KY63 160335Z AUTO 12008KT 7SM SCT070 BKN080 M01/M02 A2959 RMK AO2 T10131022
KY63 160315Z AUTO 12009KT 7SM SCT070 M01/M02 A2959 RMK AO2 T10151022
KY63 160255Z AUTO 12008KT 7SM BKN070 M01/M02 A2960 RMK AO2 T10151021
KY63 160235Z AUTO 12009KT 7SM BKN070 BKN080 M02/M02 A2961 RMK AO2 T10161021
KY63 160215Z AUTO 13008KT 7SM BKN060 BKN080 M02/M02 A2963 RMK AO2 T10171022
KY63 160155Z AUTO 12006KT 7SM OVC060 M02/M02 A2964 RMK AO2 T10181021
KY63 160135Z AUTO 12007KT 7SM SCT035 BKN060 OVC070 M02/M02 A2965 RMK AO2 T10201022
KY63 160115Z AUTO 12007KT 7SM SCT026 BKN046 OVC055 M02/M02 A2965 RMK AO2 T10201022
KY63 160055Z AUTO 12006KT 3SM -SN BKN023 OVC044 M02/M02 A2965 RMK AO2 T10221025
KY63 160035Z AUTO 12006KT 2 1/2SM -SN SCT020 BKN027 OVC033 M02/M03 A2965 RMK AO2 T10231026
KY63 160015Z AUTO 12006KT 3SM -SN OVC031 M02/M03 A2966 RMK AO2 T10251027
KY63 152355Z AUTO 12006KT 5SM BR SCT031 BKN037 OVC049 M02/M03 A2965 RMK AO2 T10251030 11025 21045
KY63 152335Z AUTO 11007KT 4SM -SN SCT024 BKN030 OVC037 M03/M03 A2967 RMK AO2 T10271031
KY63 152315Z AUTO 11008KT 3SM -SN BKN024 OVC031 M03/M03 A2967 RMK AO2 T10271032
KY63 152255Z AUTO 10008KT 5SM BR SCT008 SCT013 OVC033 M02/M03 A2968 RMK AO2 T10251030
KY63 152235Z AUTO 11008KT 3SM -SN OVC008 M02/M03 A2968 RMK AO2 T10251031
KY63 152215Z AUTO 13008KT 100V160 10SM OVC008 M02/M03 A2969 RMK AO2 T10251033
KY63 152155Z AUTO 13009KT 100V160 10SM OVC008 M02/M03 A2969 RMK AO2 T10251035
KY63 152135Z AUTO 15007KT 10SM OVC008 M03/M04 A2970 RMK AO2 T10261036
KY63 152115Z AUTO 15009KT 10SM OVC008 M03/M04 A2971 RMK AO2 T10271037
KY63 152055Z AUTO 14009KT 100V170 10SM OVC008 M03/M04 A2971 RMK AO2 T10281039
KY63 152035Z AUTO 15009KT 10SM OVC010 M03/M04 A2972 RMK AO2 T10271039
KY63 152015Z AUTO 15008KT 100V170 10SM OVC010 M03/M04 A2972 RMK AO2 T10281041
KY63 151955Z AUTO 16008KT 110V180 10SM OVC012 M03/M04 A2973 RMK AO2 T10291045
KY63 151935Z AUTO 12009KT 100V160 10SM OVC012 M03/M04 A2974 RMK AO2 T10281044
KY63 151915Z AUTO 17008KT 110V180 10SM OVC012 M03/M05 A2975 RMK AO2 T10321050
KY63 151855Z AUTO 11007KT 10SM OVC014 M04/M06 A2976 RMK AO2 T10371057
KY63 151835Z AUTO 13007KT 100V170 7SM OVC014 M04/M06 A2978 RMK AO2 T10381057
KY63 151815Z AUTO 12005KT 10SM OVC014 M04/M06 A2980 RMK AO2 T10451065
KY63 151755Z AUTO 16005KT 10SM SCT014 BKN033 OVC100 M04/M06 A2981 RMK AO2 T10451062 11045 21065
KY63 151735Z AUTO 12006KT 10SM SCT033 SCT060 BKN100 M05/M06 A2981 RMK AO2 T10491065
KY63 151715Z AUTO 11006KT 10SM SCT035 SCT060 M05/M07 A2981 RMK AO2 T10501066
KY63 151655Z AUTO 11005KT 10SM -SN SCT026 SCT039 M05/M07 A2983 RMK AO2 T10531071
KY63 151635Z AUTO 16005KT 7SM -SN SCT026 OVC036 M05/M07 A2985 RMK AO2 T10541071
KY63 151615Z AUTO 11004KT 10SM BKN035 BKN120 M06/M07 A2985 RMK AO2 T10571073
KY63 151555Z AUTO 10004KT 10SM SCT019 BKN120 M06/M07 A2984 RMK AO2 T10601074
KY63 151535Z AUTO 11003KT 10SM -SN BKN019 BKN031 M06/M07 A2985 RMK AO2 T10601075
KY63 151515Z AUTO 13003KT 10SM -SN BKN019 OVC031 M06/M08 A2985 RMK AO2 T10611076
KY63 151455Z AUTO 18003KT 10SM OVC017 M06/M08 A2986 RMK AO2 T10631077
KY63 151435Z AUTO 00000KT 10SM OVC017 M06/M08 A2986 RMK AO2 T10651082
KY63 151415Z AUTO 00000KT 10SM OVC017 M06/M08 A2987 RMK AO2 T10651085
KY63 151355Z AUTO 00000KT 10SM BKN017 OVC039 M06/M08 A2987 RMK AO2 T10651085
KY63 151335Z AUTO 00000KT 10SM BKN017 OVC039 M06/M08 A2987 RMK AO2 T10631083
KY63 151316Z AUTO 36003KT 10SM BKN017 OVC040 M06/M08 A2988 RMK AO2 T10631085
KY63 151255Z AUTO 00000KT 10SM SCT017 OVC040 M06/M08 A2988 RMK AO2 T10631084
KY63 151235Z AUTO 07003KT 10SM OVC044 M06/M08 A2988 RMK AO2 T10611080
KY63 151215Z AUTO 00000KT 10SM SCT017 OVC046 M06/M08 A2988 RMK AO2 T10601077
KY63 151155Z AUTO 00000KT 10SM BKN017 OVC046 M06/M08 A2989 RMK AO2 T10601077 11045 21060
KY63 151135Z AUTO 05003KT 10SM BKN019 OVC046 M06/M08 A2989 RMK AO2 T10581078
KY63 151115Z AUTO 02003KT 10SM OVC021 M06/M07 A2990 RMK AO2 T10581075
KY63 151055Z AUTO 02004KT 10SM OVC021 M06/M07 A2990 RMK AO2 T10561075
KY63 151035Z AUTO 02006KT 10SM BKN017 OVC022 M05/M07 A2991 RMK AO2 T10551075
KY63 151015Z AUTO 03007KT 010V080 10SM OVC017 M05/M07 A2991 RMK AO2 T10521068
KY63 150955Z AUTO 00000KT 7SM OVC017 M05/M06 A2992 RMK AO2 T10521061
KY63 150935Z AUTO 00000KT 10SM OVC015 M05/M06 A2992 RMK AO2 T10501060
KY63 150915Z AUTO 00000KT 10SM OVC015 M05/M06 A2992 RMK AO2 T10481058
KY63 150855Z AUTO 06005KT 10SM OVC017 M05/M06 A2992 RMK AO2 T10471056
KY63 150835Z AUTO 06005KT 10SM OVC017 M05/M05 A2992 RMK AO2 T10461052
KY63 150815Z AUTO 04004KT 10SM OVC017 M04/M05 A2992 RMK AO2 T10451050
KY63 150755Z AUTO 00000KT 10SM OVC015 M05/M05 A2992 RMK AO2 T10461051
KY63 150735Z AUTO 00000KT 10SM OVC015 M05/M05 A2992 RMK AO2 T10481053
KY63 150715Z AUTO 00000KT 10SM BKN013 BKN021 OVC027 M05/M05 A2992 RMK AO2 T10501055
KY63 150655Z AUTO 00000KT 10SM BKN015 OVC021 M05/M05 A2993 RMK AO2 T10501055